Latest Weather Observations for Frankston

IDV60801

Issued at 10:31 am EST Monday 3 August 2015 (issued every 30 minutes, with the page automatically refreshed every 10 minutes)

About weather observations | Map of weather stations | Latest weather observations for VIC | Other Formats
Station Details ID: 086371 Name: FRANKSTON AWS Lat: -38.15 Lon: 145.12 Height: 6.0 m
Data from the previous 72 hours. | See also: Recent months at Frankston
Date/Time
EST
Temp
°C
App
Temp
°C
Dew
Point
Rel
Hum
%
Delta-T
°C
Wind Press
QNH
hPa
Press
MSL
hPa
Rain
since 9 am
mm
Dir
 
Spd
km/h
Gust
km/h
Spd
kts
Gust
kts
03/10:30am 7.8 0.2 2.7 70 2.1 W 32 39 17 21 - - -
03/10:00am 7.4 -2.3 2.7 72 2.0 W 43 52 23 28 - - -
03/09:30am 8.3 0.6 3.6 72 2.0 WSW 33 43 18 23 - - -
03/09:00am 7.0 -2.0 4.8 86 1.0 WSW 41 54 22 29 - - -
03/08:40am 6.1 -2.3 1.6 73 1.8 W 35 69 19 37 - - -
03/08:30am 8.5 0.9 3.8 72 2.0 WNW 33 43 18 23 - - -
03/08:04am 8.3 -0.4 3.9 74 1.9 W 39 57 21 31 - - -
03/08:00am 7.9 -1.3 3.6 74 1.8 W 41 57 22 31 - - -
03/07:57am 8.2 -0.6 3.7 73 1.9 W 39 57 21 31 - - -
03/07:30am 8.0 0.5 4.2 77 1.7 W 33 43 18 23 - - -
03/07:00am 8.6 0.8 4.8 77 1.7 WNW 35 43 19 23 - - -
03/06:30am 8.4 -0.2 4.8 78 1.6 W 39 52 21 28 - - -
03/06:00am 8.8 1.1 5.2 78 1.6 WNW 35 43 19 23 - - -
03/05:30am 9.0 0.5 5.2 77 1.7 WNW 39 48 21 26 - - -
03/05:00am 9.1 0.2 4.9 75 1.9 WNW 41 50 22 27 - - -
03/04:30am 9.2 0.8 5.6 78 1.6 WNW 39 56 21 30 - - -
03/04:00am 9.6 1.2 5.6 76 1.8 WNW 39 50 21 27 - - -
03/03:30am 9.1 -0.1 5.3 77 1.7 WNW 43 54 23 29 - - -
03/03:00am 9.9 0.1 5.3 73 2.1 WNW 46 59 25 32 - - -
03/02:30am 9.6 0.1 4.8 72 2.1 WNW 44 59 24 32 - - -
03/02:00am 10.4 1.1 5.2 70 2.4 NW 43 56 23 30 - - -
03/01:30am 10.5 1.6 5.1 69 2.5 NW 41 56 22 30 - - -
03/01:00am 10.4 1.5 5.0 69 2.4 NW 41 50 22 27 - - -
03/12:30am 10.3 1.4 5.1 70 2.4 NW 41 50 22 27 - - -
03/12:00am 10.4 1.1 5.0 69 2.4 NW 43 54 23 29 - - -
 
Date/Time
EST
Temp
°C
App
Temp
°C
Dew
Point
Rel
Hum
%
Delta-T
°C
Wind Press
QNH
hPa
Press
MSL
hPa
Rain
since 9 am
mm
Dir
 
Spd
km/h
Gust
km/h
Spd
kts
Gust
kts
02/11:30pm 10.3 1.4 4.9 69 2.4 NW 41 54 22 29 - - -
02/11:00pm 10.4 1.9 5.2 70 2.4 NW 39 50 21 27 - - -
02/10:30pm 10.3 1.5 5.7 73 2.1 WNW 41 54 22 29 - - -
02/10:00pm 9.3 0.4 6.9 85 1.1 WNW 43 54 23 29 - - -
02/09:30pm 8.7 -1.1 5.3 79 1.5 WNW 46 57 25 31 - - -
02/09:00pm 10.3 2.8 6.1 75 1.9 WNW 35 43 19 23 - - -
02/08:30pm 10.1 3.6 6.6 79 1.6 WNW 30 35 16 19 - - -
02/08:00pm 10.2 3.2 6.9 80 1.6 WNW 33 44 18 24 - - -
02/07:30pm 9.9 3.6 7.5 85 1.1 WNW 30 37 16 20 - - -
02/07:00pm 9.6 4.1 7.4 86 1.0 NW 26 33 14 18 - - -
02/06:30pm 9.8 3.5 7.4 85 1.1 WNW 30 33 16 18 - - -
02/06:00pm 9.7 2.5 7.6 87 1.0 WNW 35 44 19 24 - - -
02/05:30pm 9.8 2.2 7.6 86 1.0 WNW 37 44 20 24 - - -
02/05:00pm 10.0 3.2 7.8 86 1.1 W 33 46 18 25 - - -
02/04:30pm 10.3 3.9 7.0 80 1.6 W 30 39 16 21 - - -
02/04:07pm 11.0 4.1 6.4 73 2.2 WNW 32 50 17 27 - - -
02/04:00pm 11.9 6.5 6.4 69 2.6 NW 24 33 13 18 - - -
02/03:30pm 11.9 6.0 6.0 67 2.8 NW 26 32 14 17 - - -
02/03:00pm 11.7 6.6 6.0 68 2.7 NW 22 28 12 15 - - -
02/02:30pm 11.6 7.0 6.3 70 2.5 NNW 20 28 11 15 - - -
02/02:00pm 11.4 6.2 5.3 66 2.8 NW 22 28 12 15 - - -
02/01:30pm 11.2 5.6 5.3 67 2.7 NW 24 32 13 17 - - -
02/01:00pm 11.1 3.7 5.0 66 2.8 NW 33 39 18 21 - - -
02/12:30pm 10.9 3.4 4.4 64 2.9 NW 33 43 18 23 - - -
02/12:00pm 10.5 3.2 4.6 67 2.6 NW 32 37 17 20 - - -
02/11:30am 10.3 3.4 4.5 67 2.6 NNW 30 37 16 20 - - -
02/11:00am 10.1 2.6 3.6 64 2.8 NW 32 43 17 23 - - -
02/10:30am 9.6 1.9 3.6 66 2.6 NW 33 43 18 23 - - -
02/10:00am 9.4 2.3 3.8 68 2.4 NNW 30 39 16 21 - - -
02/09:30am 9.2 1.7 3.4 67 2.5 NNW 32 39 17 21 - - -
02/09:00am 9.3 1.7 2.9 64 2.7 NNW 32 37 17 20 - - -
02/08:30am 8.8 3.2 3.6 70 2.2 N 22 26 12 14 - - -
02/08:00am 8.8 3.2 3.2 68 2.4 N 22 26 12 14 - - -
02/07:30am 9.1 3.5 3.7 69 2.3 N 22 28 12 15 - - -
02/07:00am 9.4 3.4 3.4 66 2.6 NNW 24 28 13 15 - - -
02/06:30am 9.4 3.0 3.4 66 2.6 NNW 26 32 14 17 - - -
02/06:00am 9.4 2.7 3.6 67 2.5 NNW 28 32 15 17 - - -
02/05:30am 9.7 3.3 3.2 64 2.8 NW 26 32 14 17 - - -
02/05:00am 9.3 4.2 4.1 70 2.3 NW 20 24 11 13 - - -
02/04:30am 9.2 4.0 3.8 69 2.4 NW 20 24 11 13 - - -
02/04:00am 9.1 4.0 3.9 70 2.3 NW 20 24 11 13 - - -
02/03:30am 9.2 4.0 3.8 69 2.4 NW 20 24 11 13 - - -
02/03:00am 9.4 4.3 4.0 69 2.4 NW 20 24 11 13 - - -
02/02:30am 9.4 4.4 3.8 68 2.4 NNW 19 22 10 12 - - -
02/02:00am 9.3 4.4 4.1 70 2.3 NNW 19 22 10 12 - - -
02/01:30am 9.3 4.8 4.1 70 2.3 NNW 17 20 9 11 - - -
02/01:00am 9.4 4.9 4.0 69 2.4 NNW 17 19 9 10 - - -
02/12:30am 9.4 5.3 4.6 72 2.1 NNW 15 19 8 10 - - -
02/12:00am 9.7 5.2 4.3 69 2.4 NW 17 19 9 10 - - -
 
Date/Time
EST
Temp
°C
App
Temp
°C
Dew
Point
Rel
Hum
%
Delta-T
°C
Wind Press
QNH
hPa
Press
MSL
hPa
Rain
since 9 am
mm
Dir
 
Spd
km/h
Gust
km/h
Spd
kts
Gust
kts
01/11:30pm 9.6 6.0 4.8 72 2.1 NW 13 17 7 9 - - -
01/11:00pm 9.7 5.3 4.5 70 2.3 NW 17 20 9 11 - - -
01/10:30pm 9.9 6.2 4.3 68 2.5 NW 13 15 7 8 - - -
01/10:00pm 10.0 5.9 4.6 69 2.4 NW 15 19 8 10 - - -
01/09:30pm 10.1 6.0 4.3 67 2.6 NW 15 17 8 9 - - -
01/09:00pm 10.1 6.8 4.7 69 2.4 NW 11 15 6 8 - - -
01/08:30pm 10.2 6.9 4.8 69 2.4 NW 11 13 6 7 - - -
01/08:00pm 10.2 7.0 5.2 71 2.3 NNW 11 13 6 7 - - -
01/07:30pm 10.1 6.9 5.3 72 2.2 N 11 13 6 7 - - -
01/07:00pm 9.9 7.6 5.7 75 1.9 N 7 9 4 5 - - -
01/06:30pm 9.9 7.6 5.7 75 1.9 N 7 9 4 5 - - -
01/06:00pm 9.9 7.6 5.5 74 2.0 N 7 9 4 5 - - -
01/05:30pm 9.8 7.5 5.6 75 1.9 N 7 9 4 5 - - -
01/05:00pm 9.9 7.6 5.5 74 2.0 N 7 7 4 4 - - -
01/04:30pm 9.9 7.5 5.3 73 2.1 N 7 9 4 5 - - -
01/04:00pm 10.0 7.5 5.0 71 2.3 NNW 7 9 4 5 - - -
01/03:30pm 10.2 7.7 4.6 68 2.5 NW 7 9 4 5 - - -
01/03:00pm 10.1 7.2 4.5 68 2.5 NW 9 11 5 6 - - -
01/02:30pm 10.2 6.8 4.1 66 2.7 W 11 15 6 8 - - -
01/02:00pm 10.3 5.6 2.9 60 3.2 WSW 17 20 9 11 - - -
01/01:30pm 10.4 5.3 3.0 60 3.2 WSW 19 20 10 11 - - -
01/01:00pm 10.4 5.0 2.5 58 3.4 WSW 20 24 11 13 - - -
01/12:30pm 10.4 5.6 4.8 68 2.5 WSW 19 26 10 14 - - -
01/12:00pm 10.4 5.4 4.8 68 2.5 W 20 24 11 13 - - -
01/11:30am 10.2 5.8 6.5 78 1.7 W 19 26 10 14 - - -
01/11:00am 10.0 5.6 6.5 79 1.6 WNW 19 22 10 12 - - -
01/10:30am 10.5 4.2 5.5 71 2.3 WSW 28 33 15 18 - - -
01/10:00am 10.5 4.7 6.1 74 2.0 WSW 26 32 14 17 - - -
01/09:30am 9.9 6.1 7.5 85 1.1 SW 17 24 9 13 - - -
01/09:00am 9.1 4.3 7.5 90 0.8 SW 22 33 12 18 - - -
01/08:47am 8.9 2.9 7.2 89 0.8 WSW 28 46 15 25 - - -
01/08:30am 9.1 3.6 7.4 89 0.8 WSW 26 32 14 17 - - -
01/08:00am 10.5 3.7 7.6 82 1.4 NNW 33 44 18 24 - - -
01/07:30am 10.4 4.7 6.9 79 1.7 N 26 33 14 18 - - -
01/07:00am 10.8 4.0 6.7 76 1.9 N 32 39 17 21 - - -
01/06:30am 11.3 3.9 6.6 73 2.2 N 35 44 19 24 - - -
01/06:00am 11.4 3.6 6.5 72 2.3 N 37 48 20 26 - - -
01/05:30am 11.9 2.9 6.4 69 2.6 N 43 56 23 30 - - -
01/05:00am 11.9 3.7 6.6 70 2.5 N 39 50 21 27 - - -
01/04:30am 12.3 3.8 6.8 69 2.6 N 41 56 22 30 - - -
01/04:00am 12.2 4.3 6.0 66 2.9 N 37 48 20 26 - - -
01/03:30am 12.2 4.6 5.8 65 3.0 N 35 48 19 26 - - -
01/03:00am 12.0 4.8 5.2 63 3.1 N 32 46 17 25 - - -
01/02:30am 11.8 4.6 4.8 62 3.2 N 32 39 17 21 - - -
01/02:00am 11.6 3.8 4.8 63 3.1 N 35 46 19 25 - - -
01/01:30am 11.6 4.6 4.3 61 3.3 N 30 39 16 21 - - -
01/01:00am 11.1 4.4 3.9 61 3.2 N 28 39 15 21 - - -
01/12:30am 11.2 2.8 3.5 59 3.4 N 37 46 20 25 - - -
01/12:00am 10.8 2.8 4.0 63 3.0 N 35 44 19 24 - - -
 
Date/Time
EST
Temp
°C
App
Temp
°C
Dew
Point
Rel
Hum
%
Delta-T
°C
Wind Press
QNH
hPa
Press
MSL
hPa
Rain
since 9 am
mm
Dir
 
Spd
km/h
Gust
km/h
Spd
kts
Gust
kts
31/11:30pm 10.6 2.3 4.1 64 2.9 N 37 50 20 27 - - -
31/11:00pm 10.6 1.5 3.9 63 3.0 N 41 52 22 28 - - -
31/10:30pm 10.6 3.1 4.3 65 2.8 N 33 46 18 25 - - -
31/10:00pm 10.7 2.4 4.0 63 3.0 N 37 50 20 27 - - -
31/09:30pm 10.7 3.1 4.0 63 3.0 NNW 33 43 18 23 - - -
31/09:00pm 10.6 4.4 4.1 64 2.9 NNW 26 35 14 19 - - -
31/08:30pm 10.7 4.9 4.2 64 2.9 NNW 24 33 13 18 - - -
31/08:00pm 10.9 5.0 3.9 62 3.1 N 24 33 13 18 - - -
31/07:30pm 11.0 4.4 4.2 63 3.0 N 28 35 15 19 - - -
31/07:00pm 11.2 5.1 4.9 65 2.9 N 26 35 14 19 - - -
31/06:30pm 11.4 6.0 4.6 63 3.1 N 22 33 12 18 - - -
31/06:00pm 11.4 6.0 4.6 63 3.1 N 22 28 12 15 - - -
31/05:30pm 11.8 6.5 4.8 62 3.2 N 22 28 12 15 - - -
31/05:00pm 11.7 7.3 4.9 63 3.1 N 17 24 9 13 - - -
31/04:30pm 11.3 9.5 1.5 51 4.1 CALM 0 0 0 0 - - -
31/04:00pm 11.0 9.5 3.1 58 3.4 CALM 0 0 0 0 - - -
31/03:30pm 9.8 7.6 3.3 64 2.8 WSW 4 6 2 3 - - -
31/03:00pm 9.7 7.1 4.1 68 2.5 WSW 7 7 4 4 - - -
31/02:30pm 9.6 7.0 4.0 68 2.5 W 7 9 4 5 - - -
31/02:00pm 9.7 7.0 3.9 67 2.5 WNW 7 7 4 4 - - -
31/01:30pm 9.8 7.5 4.6 70 2.3 NW 6 7 3 4 - - -
31/01:00pm 9.5 7.0 4.5 71 2.2 NNW 7 9 4 5 - - -
31/12:30pm 9.1 5.8 4.5 73 2.0 NNW 11 13 6 7 - - -
31/12:00pm 8.9 5.2 4.5 74 1.9 NNW 13 15 7 8 - - -
31/11:30am 8.6 4.1 4.4 75 1.8 NW 17 20 9 11 - - -
31/11:00am 8.4 3.9 4.4 76 1.8 NNW 17 20 9 11 - - -

Other Formats:

Comma delimited format used in spreadsheet applications
http://www.bom.gov.au/fwo/IDV60801/IDV60801.94871.axf

JavaScript Object Notation format (JSON) in row-major order
http://www.bom.gov.au/fwo/IDV60801/IDV60801.94871.json